createdAt,value
2023-01-29T00:02:41.673Z,1.49
2023-01-29T00:05:45.294Z,1.48
2023-01-29T00:08:48.142Z,1.38
2023-01-29T00:11:51.363Z,1.41
2023-01-29T00:14:54.947Z,1.40
2023-01-29T00:17:58.828Z,1.37
2023-01-29T00:21:01.254Z,1.37
2023-01-29T00:24:04.249Z,1.28
2023-01-29T00:27:06.762Z,1.18
2023-01-29T00:30:12.854Z,1.14
2023-01-29T00:33:15.228Z,1.02
2023-01-29T00:36:20.033Z,0.97
2023-01-29T00:39:31.372Z,0.88
2023-01-29T00:42:57.968Z,0.89
2023-01-29T00:46:00.379Z,1.00
2023-01-29T00:49:04.497Z,1.02
2023-01-29T00:52:25.277Z,1.03
2023-01-29T00:55:28.252Z,0.98
2023-01-29T00:58:34.472Z,1.01
2023-01-29T01:01:55.907Z,1.02
2023-01-29T01:04:58.426Z,1.01
2023-01-29T01:08:01.568Z,1.09
2023-01-29T01:11:06.426Z,1.07
2023-01-29T01:14:09.679Z,1.11
2023-01-29T01:17:12.268Z,1.14
2023-01-29T01:20:16.034Z,1.11
2023-01-29T01:23:19.798Z,1.12
2023-01-29T01:26:22.730Z,1.08
2023-01-29T01:29:25.286Z,1.05
2023-01-29T01:32:28.171Z,0.97
2023-01-29T01:35:31.091Z,0.98
2023-01-29T01:38:34.323Z,0.97
2023-01-29T01:41:37.153Z,1.00
2023-01-29T01:44:53.990Z,0.91
2023-01-29T01:48:16.582Z,0.86
2023-01-29T01:51:22.011Z,0.83
2023-01-29T01:54:30.132Z,0.75
2023-01-29T01:57:34.185Z,0.67
2023-01-29T02:00:39.592Z,0.63
2023-01-29T02:04:13.416Z,0.54
2023-01-29T02:07:35.663Z,0.55
2023-01-29T02:10:42.980Z,0.51
2023-01-29T02:13:53.774Z,0.42
2023-01-29T02:17:01.914Z,0.32
2023-01-29T02:20:26.510Z,0.32
2023-01-29T02:23:51.695Z,0.36
2023-01-29T02:27:26.304Z,0.25
2023-01-29T02:30:36.351Z,0.18
2023-01-29T02:33:53.272Z,0.15
2023-01-29T02:37:08.257Z,0.15
2023-01-29T02:40:34.039Z,0.23
2023-01-29T02:43:54.148Z,0.10
2023-01-29T02:47:05.725Z,0.08
2023-01-29T02:50:20.332Z,0.10
2023-01-29T02:53:47.453Z,0.04
2023-01-29T02:56:58.748Z,0.06
2023-01-29T03:00:10.891Z,-0.19
2023-01-29T03:03:21.046Z,-0.12
2023-01-29T03:06:37.481Z,-0.28
2023-01-29T03:09:46.553Z,-0.32
2023-01-29T03:12:59.780Z,-0.31
2023-01-29T03:16:09.022Z,-0.15
2023-01-29T03:19:22.242Z,-0.25
2023-01-29T03:22:30.159Z,-0.20
2023-01-29T03:25:56.891Z,-0.34
2023-01-29T03:29:24.859Z,-0.32
2023-01-29T03:32:30.903Z,-0.20
2023-01-29T03:35:39.613Z,-0.20
2023-01-29T03:38:43.381Z,-0.19
2023-01-29T03:42:09.152Z,-0.07
2023-01-29T03:45:21.891Z,-0.10
2023-01-29T03:48:35.606Z,-0.01
2023-01-29T03:52:04.379Z,-0.11
2023-01-29T03:55:24.416Z,-0.15
2023-01-29T03:58:47.659Z,-0.11
2023-01-29T04:01:59.359Z,0.02
2023-01-29T04:05:10.155Z,0.13
2023-01-29T04:08:22.869Z,0.06
2023-01-29T04:11:28.915Z,0.08
2023-01-29T04:14:33.481Z,0.16
2023-01-29T04:17:41.975Z,0.17
2023-01-29T04:20:46.505Z,0.16
2023-01-29T04:23:49.617Z,0.16
2023-01-29T04:27:05.082Z,0.22
2023-01-29T04:30:30.635Z,0.28
2023-01-29T04:34:11.460Z,0.31
2023-01-29T04:37:30.687Z,0.29
2023-01-29T04:40:48.041Z,0.32
2023-01-29T04:44:14.817Z,0.35
2023-01-29T04:47:29.168Z,0.40
2023-01-29T04:50:54.398Z,0.46
2023-01-29T04:54:07.848Z,0.52
2023-01-29T04:57:28.941Z,0.54
2023-01-29T05:00:36.190Z,0.43
2023-01-29T05:03:42.704Z,0.44
2023-01-29T05:06:47.403Z,0.48
2023-01-29T05:09:51.209Z,0.56
2023-01-29T05:13:00.470Z,0.60
2023-01-29T05:16:10.207Z,0.72
2023-01-29T05:19:15.048Z,0.75
2023-01-29T05:22:22.713Z,0.65
2023-01-29T05:25:31.102Z,0.69
2023-01-29T05:28:36.054Z,0.78
2023-01-29T05:31:38.619Z,0.78
2023-01-29T05:34:42.331Z,0.81
2023-01-29T05:37:44.693Z,0.86
2023-01-29T05:40:47.657Z,0.71
2023-01-29T05:43:50.058Z,0.57
2023-01-29T05:46:53.110Z,0.53
2023-01-29T05:49:55.476Z,0.68
2023-01-29T05:53:02.293Z,0.78
2023-01-29T05:56:05.217Z,0.79
2023-01-29T05:59:08.003Z,0.80
2023-01-29T06:02:10.478Z,0.74
2023-01-29T06:05:16.164Z,0.77
2023-01-29T06:08:18.581Z,0.76
2023-01-29T06:11:22.867Z,0.85
2023-01-29T06:14:25.404Z,0.93
2023-01-29T06:17:28.098Z,0.94
2023-01-29T06:20:30.498Z,0.81
2023-01-29T06:23:33.425Z,0.86
2023-01-29T06:26:35.863Z,0.80
2023-01-29T06:29:38.897Z,0.79
2023-01-29T06:32:41.276Z,0.82
2023-01-29T06:35:44.200Z,0.88
2023-01-29T06:38:49.724Z,0.81
2023-01-29T06:41:52.665Z,0.95
2023-01-29T06:44:58.247Z,0.95
2023-01-29T06:48:01.638Z,1.12
2023-01-29T06:51:13.916Z,1.14
2023-01-29T06:54:16.688Z,1.20
2023-01-29T06:57:19.077Z,1.16
2023-01-29T07:00:21.969Z,1.07
2023-01-29T07:03:24.215Z,1.16
2023-01-29T07:06:28.942Z,1.23
2023-01-29T07:09:32.792Z,1.11
2023-01-29T07:12:35.879Z,1.12
2023-01-29T07:15:38.430Z,1.28
2023-01-29T07:18:41.420Z,1.14
2023-01-29T07:21:46.066Z,1.21
2023-01-29T07:24:48.975Z,1.21
2023-01-29T07:27:53.198Z,1.18
2023-01-29T07:30:57.752Z,1.16
2023-01-29T07:34:00.150Z,1.17
2023-01-29T07:37:03.195Z,1.22
2023-01-29T07:40:14.398Z,1.17
2023-01-29T07:43:17.625Z,1.14
2023-01-29T07:46:20.109Z,1.16
2023-01-29T07:49:22.886Z,1.29
2023-01-29T07:52:31.117Z,1.23
2023-01-29T07:55:34.197Z,1.28
2023-01-29T07:58:37.118Z,1.24
2023-01-29T08:01:39.793Z,1.35
2023-01-29T08:04:42.671Z,1.21
2023-01-29T08:07:49.351Z,1.23
2023-01-29T08:10:57.188Z,1.26
2023-01-29T08:13:59.518Z,1.18
2023-01-29T08:17:02.181Z,1.32
2023-01-29T08:20:06.252Z,1.40
2023-01-29T08:23:15.825Z,1.39
2023-01-29T08:26:18.233Z,1.35
2023-01-29T08:29:20.884Z,1.44
2023-01-29T08:32:23.351Z,1.42
2023-01-29T08:35:26.812Z,1.47
2023-01-29T08:38:29.640Z,1.47
2023-01-29T08:41:32.945Z,1.45
2023-01-29T08:44:35.312Z,1.42
2023-01-29T08:47:38.013Z,1.53
2023-01-29T08:50:40.466Z,1.57
2023-01-29T08:53:43.272Z,1.59
2023-01-29T08:56:45.862Z,1.56
2023-01-29T08:59:48.707Z,1.69
2023-01-29T09:02:51.709Z,1.65
2023-01-29T09:05:54.661Z,1.71
2023-01-29T09:08:57.415Z,1.70
2023-01-29T09:12:00.114Z,1.66
2023-01-29T09:15:02.620Z,1.65
2023-01-29T09:18:06.019Z,1.67
2023-01-29T09:21:08.880Z,1.67
2023-01-29T09:24:11.949Z,1.54
2023-01-29T09:27:14.423Z,1.42
2023-01-29T09:30:17.887Z,1.38
2023-01-29T09:33:21.582Z,1.47
2023-01-29T09:36:24.605Z,1.65
2023-01-29T09:39:30.184Z,1.66
2023-01-29T09:42:50.682Z,1.55
2023-01-29T09:46:19.440Z,1.49
2023-01-29T09:49:28.929Z,1.50
2023-01-29T09:52:40.225Z,1.47
2023-01-29T09:55:49.903Z,1.60
2023-01-29T09:58:52.531Z,1.65
2023-01-29T10:02:43.370Z,1.71
2023-01-29T10:06:21.686Z,1.73
2023-01-29T10:09:39.152Z,1.83
2023-01-29T10:12:51.337Z,1.78
2023-01-29T10:16:41.543Z,1.60
2023-01-29T10:20:14.001Z,1.57
2023-01-29T10:23:26.025Z,1.35
2023-01-29T10:26:29.973Z,1.55
2023-01-29T10:29:34.547Z,1.60
2023-01-29T10:32:40.753Z,1.54
2023-01-29T10:35:46.471Z,1.43
2023-01-29T10:38:52.849Z,1.42
2023-01-29T10:42:20.900Z,1.45
2023-01-29T10:45:46.023Z,1.34
2023-01-29T10:49:21.718Z,1.31
2023-01-29T10:52:51.332Z,1.22
2023-01-29T10:56:23.727Z,1.30
2023-01-29T10:59:53.771Z,0.97
2023-01-29T11:02:56.417Z,1.02
2023-01-29T11:06:19.050Z,1.04
2023-01-29T11:09:33.187Z,0.94
2023-01-29T11:12:38.864Z,1.04
2023-01-29T11:15:41.349Z,1.09
2023-01-29T11:18:56.470Z,1.15
2023-01-29T11:22:01.371Z,1.11
2023-01-29T11:25:18.874Z,1.15
2023-01-29T11:28:41.090Z,1.21
2023-01-29T11:31:45.599Z,1.22
2023-01-29T11:35:20.672Z,1.19
2023-01-29T11:38:28.822Z,1.25
2023-01-29T11:41:42.225Z,1.41
2023-01-29T11:44:45.272Z,1.38
2023-01-29T11:47:54.360Z,1.44
2023-01-29T11:51:04.852Z,1.47
2023-01-29T11:54:18.241Z,1.44
2023-01-29T11:57:29.432Z,1.62
2023-01-29T12:00:36.793Z,1.63
2023-01-29T12:03:46.186Z,1.71
2023-01-29T12:06:52.770Z,1.61
2023-01-29T12:09:58.426Z,1.93
2023-01-29T12:13:04.721Z,2.02
2023-01-29T12:17:00.388Z,1.95
2023-01-29T12:20:18.504Z,1.98
2023-01-29T12:23:44.427Z,2.22
2023-01-29T12:26:55.021Z,2.18
2023-01-29T12:30:10.217Z,1.83
2023-01-29T12:33:32.225Z,1.84
2023-01-29T12:36:53.214Z,1.68
2023-01-29T12:39:55.944Z,1.45
2023-01-29T12:43:05.603Z,1.37
2023-01-29T12:46:21.439Z,1.44
2023-01-29T12:49:39.988Z,1.30
2023-01-29T12:52:51.920Z,1.30
2023-01-29T12:56:09.713Z,1.19
2023-01-29T12:59:24.592Z,1.18
2023-01-29T13:02:44.606Z,1.07
2023-01-29T13:06:13.915Z,1.16
2023-01-29T13:09:22.119Z,1.16
2023-01-29T13:12:24.851Z,1.27
2023-01-29T13:15:38.790Z,1.23
2023-01-29T13:18:46.197Z,1.21
2023-01-29T13:21:54.165Z,1.26
2023-01-29T13:25:04.552Z,1.18
2023-01-29T13:28:18.285Z,1.24
2023-01-29T13:31:34.820Z,1.08
2023-01-29T13:34:45.441Z,1.28
2023-01-29T13:37:53.927Z,1.42
2023-01-29T13:41:03.134Z,1.54
2023-01-29T13:44:08.169Z,1.48
2023-01-29T13:47:22.179Z,1.50
2023-01-29T13:50:41.376Z,1.43
2023-01-29T13:53:52.761Z,1.70
2023-01-29T13:56:55.035Z,1.89
2023-01-29T13:59:58.917Z,2.39
2023-01-29T14:03:01.377Z,2.23
2023-01-29T14:06:04.625Z,2.20
2023-01-29T14:09:38.732Z,2.08
2023-01-29T14:12:43.606Z,2.14
2023-01-29T14:16:07.127Z,2.22
2023-01-29T14:19:19.083Z,2.24
2023-01-29T14:22:28.882Z,2.21
2023-01-29T14:25:34.934Z,2.11
2023-01-29T14:28:37.608Z,1.97
2023-01-29T14:31:43.639Z,1.90
2023-01-29T14:34:51.172Z,2.04
2023-01-29T14:37:59.173Z,1.91
2023-01-29T14:41:06.055Z,1.76
2023-01-29T14:44:45.988Z,1.72
2023-01-29T14:47:48.244Z,1.66
2023-01-29T14:50:53.239Z,1.69
2023-01-29T14:54:11.985Z,1.63
2023-01-29T14:57:18.085Z,1.51
2023-01-29T15:00:30.163Z,1.37
2023-01-29T15:03:43.839Z,1.29
2023-01-29T15:06:56.322Z,1.22
2023-01-29T15:10:22.335Z,1.28
2023-01-29T15:13:38.084Z,1.15
2023-01-29T15:16:53.258Z,1.11
2023-01-29T15:19:56.862Z,1.03
2023-01-29T15:23:00.696Z,0.94
2023-01-29T15:26:07.118Z,1.00
2023-01-29T15:29:24.240Z,1.05
2023-01-29T15:32:31.506Z,1.05
2023-01-29T15:35:41.406Z,0.78
2023-01-29T15:38:43.799Z,0.68
2023-01-29T15:41:47.192Z,0.49
2023-01-29T15:44:49.593Z,0.62
2023-01-29T15:47:55.363Z,0.41
2023-01-29T15:50:58.969Z,0.36
2023-01-29T15:54:08.063Z,0.22
2023-01-29T15:57:21.279Z,0.17
2023-01-29T16:00:27.727Z,0.11
2023-01-29T16:03:33.564Z,0.10
2023-01-29T16:06:38.942Z,-0.01
2023-01-29T16:09:43.402Z,-0.01
2023-01-29T16:12:51.368Z,-0.13
2023-01-29T16:16:07.669Z,-0.08
2023-01-29T16:19:21.162Z,0.03
2023-01-29T16:22:25.314Z,-0.16
2023-01-29T16:25:30.380Z,-0.14
2023-01-29T16:28:39.349Z,-0.35
2023-01-29T16:31:44.812Z,-0.51
2023-01-29T16:34:49.849Z,-0.53
2023-01-29T16:37:56.004Z,-0.43
2023-01-29T16:41:08.468Z,-0.24
2023-01-29T16:44:16.822Z,-0.24
2023-01-29T16:47:36.665Z,-0.35
2023-01-29T16:50:53.872Z,-0.32
2023-01-29T16:54:06.480Z,-0.39
2023-01-29T16:57:18.407Z,-0.41
2023-01-29T17:00:27.685Z,-0.54
2023-01-29T17:03:36.117Z,-0.56
2023-01-29T17:06:46.087Z,-0.57
2023-01-29T17:09:54.443Z,-0.67
2023-01-29T17:13:20.435Z,-0.71
2023-01-29T17:16:34.648Z,-0.73
2023-01-29T17:19:37.705Z,-0.75
2023-01-29T17:22:43.251Z,-0.58
2023-01-29T17:25:52.980Z,-0.50
2023-01-29T17:28:56.400Z,-0.50
2023-01-29T17:32:00.376Z,-0.65
2023-01-29T17:35:03.465Z,-0.71
2023-01-29T17:38:11.544Z,-0.71
2023-01-29T17:41:27.155Z,-0.74
2023-01-29T17:44:30.086Z,-0.80
2023-01-29T17:47:32.593Z,-0.82
2023-01-29T17:50:39.105Z,-0.94
2023-01-29T17:53:47.507Z,-0.91
2023-01-29T17:56:52.315Z,-0.94
2023-01-29T17:59:56.594Z,-0.91
2023-01-29T18:03:02.580Z,-0.97
2023-01-29T18:06:10.233Z,-0.85
2023-01-29T18:09:14.850Z,-0.86
2023-01-29T18:12:17.745Z,-0.90
2023-01-29T18:15:20.478Z,-1.11
2023-01-29T18:18:24.422Z,-1.05
2023-01-29T18:21:26.745Z,-1.13
2023-01-29T18:24:30.051Z,-1.31
2023-01-29T18:27:32.447Z,-1.24
2023-01-29T18:30:35.141Z,-1.22
2023-01-29T18:33:37.671Z,-1.22
2023-01-29T18:36:40.500Z,-1.25
2023-01-29T18:39:44.169Z,-1.26
2023-01-29T18:42:47.188Z,-1.41
2023-01-29T18:45:49.517Z,-1.33
2023-01-29T18:48:52.458Z,-1.24
2023-01-29T18:51:55.112Z,-1.39
2023-01-29T18:54:57.861Z,-1.50
2023-01-29T18:58:33.663Z,-1.42
2023-01-29T19:01:23.906Z,-1.46
2023-01-29T19:04:26.400Z,-1.42
2023-01-29T19:07:30.154Z,-1.55
2023-01-29T19:10:32.848Z,-1.69
2023-01-29T19:13:36.475Z,-1.89
2023-01-29T19:16:38.921Z,-1.83
2023-01-29T19:19:41.791Z,-1.75
2023-01-29T19:22:44.562Z,-1.70
2023-01-29T19:25:47.825Z,-1.93
2023-01-29T19:28:51.047Z,-1.80
2023-01-29T19:31:53.779Z,-1.77
2023-01-29T19:34:57.737Z,-1.76
2023-01-29T19:38:01.159Z,-1.74
2023-01-29T19:41:05.361Z,-1.72
2023-01-29T19:44:08.108Z,-1.77
2023-01-29T19:47:10.563Z,-1.70
2023-01-29T19:50:13.195Z,-1.69
2023-01-29T19:53:15.431Z,-1.70
2023-01-29T19:56:19.907Z,-1.66
2023-01-29T19:59:22.843Z,-1.67
2023-01-29T20:02:25.552Z,-1.73
2023-01-29T20:05:28.177Z,-1.55
2023-01-29T20:08:31.351Z,-1.55
2023-01-29T20:11:34.096Z,-1.46
2023-01-29T20:14:36.289Z,-1.49
2023-01-29T20:17:39.051Z,-1.40
2023-01-29T20:20:42.992Z,-1.48
2023-01-29T20:23:46.046Z,-1.53
2023-01-29T20:26:48.424Z,-1.41
2023-01-29T20:29:52.703Z,-1.51
2023-01-29T20:32:55.289Z,-1.49
2023-01-29T20:36:00.879Z,-1.50
2023-01-29T20:39:03.412Z,-1.53
2023-01-29T20:42:06.014Z,-1.49
2023-01-29T20:45:08.666Z,-1.56
2023-01-29T20:48:11.275Z,-1.67
2023-01-29T20:51:16.655Z,-1.70
2023-01-29T20:54:19.608Z,-1.67
2023-01-29T20:57:22.076Z,-1.65
2023-01-29T21:00:24.722Z,-1.76
2023-01-29T21:03:28.003Z,-1.71
2023-01-29T21:06:31.110Z,-1.62
2023-01-29T21:09:33.490Z,-1.61
2023-01-29T21:12:36.193Z,-1.65
2023-01-29T21:15:38.899Z,-1.68
2023-01-29T21:18:41.828Z,-1.62
2023-01-29T21:21:44.086Z,-1.72
2023-01-29T21:24:46.744Z,-1.88
2023-01-29T21:27:50.098Z,-1.82
2023-01-29T21:31:02.668Z,-1.73
2023-01-29T21:34:05.224Z,-1.66
2023-01-29T21:37:09.377Z,-1.67
2023-01-29T21:40:12.814Z,-1.84
2023-01-29T21:43:16.034Z,-1.94
2023-01-29T21:46:18.300Z,-1.94
2023-01-29T21:49:21.150Z,-2.01
2023-01-29T21:52:23.395Z,-2.12
2023-01-29T21:55:26.087Z,-2.13
2023-01-29T21:58:28.857Z,-2.17
2023-01-29T22:01:38.198Z,-2.16
2023-01-29T22:04:42.480Z,-2.37
2023-01-29T22:07:45.065Z,-2.30
2023-01-29T22:10:47.896Z,-2.27
2023-01-29T22:13:50.195Z,-2.25
2023-01-29T22:16:52.749Z,-2.43
2023-01-29T22:19:55.143Z,-2.51
2023-01-29T22:23:00.300Z,-2.46
2023-01-29T22:26:04.172Z,-2.40
2023-01-29T22:29:06.729Z,-2.36
2023-01-29T22:32:10.239Z,-2.40
2023-01-29T22:35:13.271Z,-2.49
2023-01-29T22:38:15.555Z,-2.52
2023-01-29T22:41:18.172Z,-2.47
2023-01-29T22:44:21.437Z,-2.49
2023-01-29T22:47:24.010Z,-2.50
2023-01-29T22:50:26.303Z,-2.50
2023-01-29T22:53:28.827Z,-2.49
2023-01-29T22:56:31.181Z,-2.42
2023-01-29T22:59:33.880Z,-2.55
2023-01-29T23:02:37.364Z,-2.55
2023-01-29T23:05:39.885Z,-2.62
2023-01-29T23:08:42.196Z,-2.68
2023-01-29T23:11:45.002Z,-2.72
2023-01-29T23:14:47.308Z,-2.73
2023-01-29T23:17:49.856Z,-2.67
2023-01-29T23:20:56.834Z,-2.62
2023-01-29T23:24:00.535Z,-2.77
2023-01-29T23:27:14.930Z,-2.73
2023-01-29T23:30:17.849Z,-2.70
2023-01-29T23:33:20.514Z,-2.63
2023-01-29T23:36:23.467Z,-2.65
2023-01-29T23:39:25.759Z,-2.66
2023-01-29T23:42:28.346Z,-2.67
2023-01-29T23:45:30.582Z,-2.70
2023-01-29T23:48:33.320Z,-2.66
2023-01-29T23:51:35.560Z,-2.75
2023-01-29T23:54:38.087Z,-2.78
2023-01-29T23:57:40.301Z,-2.74
